Time;durP1;ratioP1;P1;durP2;ratioP2;P2;SDS_P1;SDS_P2;PMS_P1;PMS_P2;Temp;Humidity;BMP_temperature;BMP_pressure;BME280_temperature;BME280_humidity;BME280_pressure;Samples;Min_cycle;Max_cycle;Signal;HPM_P1;HPM_P2
2023/04/16 00:03:30;;;;;;;6.35;3.05;;;;;;;8.68;100.00;102303.25;10379684;28;20049;-72
2023/04/16 00:08:31;;;;;;;4.25;2.30;;;;;;;8.66;100.00;102310.66;10378189;28;20030;-71
2023/04/16 00:13:31;;;;;;;2.85;1.92;;;;;;;8.65;100.00;102313.47;10377419;28;20057;-71
2023/04/16 00:18:31;;;;;;;3.42;1.73;;;;;;;8.64;100.00;102309.09;10393452;28;20474;-70
2023/04/16 00:23:32;;;;;;;7.60;2.85;;;;;;;8.65;100.00;102314.34;10394979;28;20038;-71
2023/04/16 00:28:32;;;;;;;4.80;2.33;;;;;;;8.66;100.00;102310.66;10378649;28;20054;-71
2023/04/16 00:33:33;;;;;;;8.50;1.92;;;;;;;8.56;100.00;102296.34;10377084;28;20510;-70
2023/04/16 00:38:33;;;;;;;11.25;3.25;;;;;;;8.56;100.00;102294.50;10377512;28;20038;-71
2023/04/16 00:43:34;;;;;;;10.75;2.70;;;;;;;8.51;100.00;102291.38;10393363;28;20026;-71
2023/04/16 00:48:35;;;;;;;9.57;3.55;;;;;;;8.56;100.00;102302.59;10396974;28;20064;-72
2023/04/16 00:53:36;;;;;;;23.48;3.63;;;;;;;8.57;100.00;102301.59;10378471;28;20034;-72
2023/04/16 00:58:36;;;;;;;2.58;2.38;;;;;;;8.61;100.00;102307.53;10393244;28;20434;-69
2023/04/16 01:03:38;;;;;;;5.68;2.40;;;;;;;8.58;100.00;102303.31;10377312;28;20038;-69
2023/04/16 01:08:38;;;;;;;7.85;2.78;;;;;;;8.59;100.00;102306.84;10359442;28;20084;-74
2023/04/16 01:13:39;;;;;;;5.10;3.20;;;;;;;8.54;100.00;102296.47;10375592;28;20490;-70
2023/04/16 01:18:40;;;;;;;4.70;3.17;;;;;;;8.60;100.00;102308.53;10375364;28;20034;-71
2023/04/16 01:23:40;;;;;;;7.68;2.47;;;;;;;8.64;100.00;102312.63;10375686;28;20034;-72
2023/04/16 01:28:40;;;;;;;16.75;2.72;;;;;;;8.64;100.00;102317.19;10376887;28;20042;-71
2023/04/16 01:33:41;;;;;;;4.20;3.17;;;;;;;8.62;100.00;102314.66;10377213;28;20045;-70
2023/04/16 01:38:41;;;;;;;5.20;2.80;;;;;;;8.66;100.00;102312.50;10377291;28;20521;-71
2023/04/16 01:43:42;;;;;;;2.25;1.65;;;;;;;8.59;100.00;102314.94;10395136;28;20425;-70
2023/04/16 01:48:42;;;;;;;7.90;3.05;;;;;;;8.65;100.00;102313.47;10377482;28;20072;-71
2023/04/16 01:53:42;;;;;;;17.25;2.97;;;;;;;8.53;100.00;102313.69;10390767;28;20041;-71
2023/04/16 01:58:44;;;;;;;6.00;3.40;;;;;;;8.51;100.00;102312.13;10374463;28;20034;-70
2023/04/16 02:03:45;;;;;;;10.35;2.80;;;;;;;8.50;100.00;102322.09;10375073;28;20461;-71
2023/04/16 02:08:46;;;;;;;7.45;3.55;;;;;;;8.60;100.00;102330.97;10357894;28;20152;-70
2023/04/16 02:13:46;;;;;;;16.88;3.40;;;;;;;8.56;100.00;102329.59;10374451;28;20398;-70
2023/04/16 02:18:46;;;;;;;5.68;3.72;;;;;;;8.51;100.00;102328.34;10374696;28;20053;-72
2023/04/16 02:23:50;;;;;;;7.03;3.03;;;;;;;8.52;100.00;102339.00;10389421;28;20088;-71
2023/04/16 02:28:50;;;;;;;10.10;2.35;;;;;;;8.52;100.00;102333.59;10372717;28;20068;-71
2023/04/16 02:33:51;;;;;;;16.10;3.00;;;;;;;8.52;100.00;102339.00;10374902;28;20030;-81
2023/04/16 02:38:51;;;;;;;7.38;4.00;;;;;;;8.48;100.00;102328.63;10374930;28;20048;-78
2023/04/16 02:43:52;;;;;;;8.13;2.75;;;;;;;8.52;100.00;102330.03;10374186;28;20036;-79
2023/04/16 02:48:52;;;;;;;9.77;3.50;;;;;;;8.46;100.00;102331.50;10375241;28;20046;-79
2023/04/16 02:53:53;;;;;;;4.80;3.95;;;;;;;8.48;100.00;102334.88;10389161;28;20034;-80
2023/04/16 02:58:53;;;;;;;11.18;4.15;;;;;;;8.47;100.00;102335.88;10372947;28;20033;-78
2023/04/16 03:03:54;;;;;;;7.75;3.58;;;;;;;8.48;100.00;102329.47;10372463;28;20492;-80
2023/04/16 03:08:54;;;;;;;7.90;3.17;;;;;;;8.45;100.00;102332.47;10371681;28;20048;-78
2023/04/16 03:13:55;;;;;;;4.22;2.95;;;;;;;8.38;100.00;102328.66;10373538;28;20468;-80
2023/04/16 03:18:55;;;;;;;8.95;3.40;;;;;;;8.34;100.00;102335.34;10377165;28;20501;-79
2023/04/16 03:23:56;;;;;;;10.52;4.03;;;;;;;8.31;100.00;102341.88;10381303;28;20529;-80
2023/04/16 03:28:56;;;;;;;17.23;4.63;;;;;;;8.25;100.00;102341.63;10380043;28;20058;-79
2023/04/16 03:33:57;;;;;;;4.65;3.42;;;;;;;8.11;100.00;102335.69;10396364;28;20112;-78
2023/04/16 03:38:57;;;;;;;15.80;4.20;;;;;;;8.01;100.00;102336.69;10380917;28;20081;-78
2023/04/16 03:43:58;;;;;;;7.75;3.42;;;;;;;7.97;100.00;102338.84;10380835;28;20026;-77
2023/04/16 03:48:58;;;;;;;12.27;4.15;;;;;;;7.99;100.00;102344.94;10380630;28;20053;-76
2023/04/16 03:53:59;;;;;;;10.52;3.85;;;;;;;7.99;100.00;102344.09;10379860;28;20177;-77
2023/04/16 03:58:59;;;;;;;11.70;3.70;;;;;;;7.98;100.00;102332.47;10378943;28;20128;-77
2023/04/16 04:04:00;;;;;;;6.32;3.33;;;;;;;7.96;100.00;102342.53;10379812;28;20041;-77
2023/04/16 04:09:01;;;;;;;10.35;4.45;;;;;;;7.98;100.00;102343.25;10379955;28;20084;-77
2023/04/16 04:14:01;;;;;;;14.40;4.78;;;;;;;8.02;100.00;102339.25;10380189;28;20038;-77
2023/04/16 04:19:02;;;;;;;10.70;4.05;;;;;;;8.02;100.00;102338.41;10361776;28;20116;-77
2023/04/16 04:24:02;;;;;;;14.77;3.78;;;;;;;8.03;100.00;102340.97;10394381;28;20042;-76
2023/04/16 04:29:02;;;;;;;7.82;2.85;;;;;;;8.03;100.00;102337.41;10379678;28;20049;-76
2023/04/16 04:34:03;;;;;;;17.02;4.68;;;;;;;8.09;100.00;102345.78;10393539;28;20064;-77
2023/04/16 04:39:03;;;;;;;28.25;4.78;;;;;;;8.13;100.00;102346.31;10379058;28;20034;-76
2023/04/16 04:44:04;;;;;;;6.22;4.80;;;;;;;8.11;100.00;102356.44;10393635;28;20147;-75
2023/04/16 04:49:05;;;;;;;21.27;4.68;;;;;;;8.06;100.00;102359.56;10393530;28;20045;-74
2023/04/16 04:54:05;;;;;;;6.45;3.75;;;;;;;8.05;100.00;102365.09;10376735;28;20504;-74
2023/04/16 04:59:06;;;;;;;13.65;4.75;;;;;;;8.06;100.00;102364.94;10377828;28;20129;-74
2023/04/16 05:04:06;;;;;;;8.23;4.55;;;;;;;8.09;100.00;102361.13;10378001;28;20068;-74
2023/04/16 05:09:10;;;;;;;5.07;3.50;;;;;;;8.13;100.00;102376.84;10376996;28;20117;-74
2023/04/16 05:14:11;;;;;;;10.18;2.75;;;;;;;8.12;100.00;102385.94;10376699;28;20390;-74
2023/04/16 05:19:11;;;;;;;20.65;4.63;;;;;;;8.10;100.00;102379.00;10375707;28;20117;-74
2023/04/16 05:24:12;;;;;;;7.18;2.42;;;;;;;8.08;100.00;102381.00;10375106;28;20033;-74
2023/04/16 05:29:12;;;;;;;5.45;3.35;;;;;;;8.08;100.00;102391.78;10375886;28;20569;-74
2023/04/16 05:34:13;;;;;;;4.65;2.83;;;;;;;8.08;100.00;102397.19;10391827;28;20473;-76
2023/04/16 05:39:15;;;;;;;14.00;3.30;;;;;;;8.09;100.00;102396.19;10390658;28;20026;-76
2023/04/16 05:44:15;;;;;;;5.57;3.83;;;;;;;8.08;100.00;102392.66;10375248;28;20108;-76
2023/04/16 05:49:17;;;;;;;5.00;2.78;;;;;;;8.05;100.00;102401.03;10377144;28;20029;-76
2023/04/16 05:54:18;;;;;;;14.50;4.35;;;;;;;8.10;100.00;102396.06;10375636;28;20041;-77
2023/04/16 05:59:18;;;;;;;11.73;3.53;;;;;;;8.19;100.00;102399.72;10374378;28;20073;-77
2023/04/16 06:04:19;;;;;;;6.10;3.28;;;;;;;8.19;100.00;102399.72;10375662;28;20042;-76
2023/04/16 06:09:19;;;;;;;3.55;2.42;;;;;;;8.26;100.00;102408.06;10375465;28;20132;-78
2023/04/16 06:14:20;;;;;;;7.93;3.38;;;;;;;8.28;100.00;102412.34;10358874;28;20069;-76
2023/04/16 06:19:20;;;;;;;5.22;2.90;;;;;;;8.25;100.00;102415.31;10389420;28;20125;-77
2023/04/16 06:24:21;;;;;;;6.05;3.55;;;;;;;8.28;100.00;102425.84;10374869;28;20113;-79
2023/04/16 06:29:21;;;;;;;13.35;3.70;;;;;;;8.29;100.00;102427.53;10373637;28;20046;-75
2023/04/16 06:34:22;;;;;;;16.45;4.28;;;;;;;8.36;100.00;102427.81;10373110;28;20042;-80
2023/04/16 06:39:22;;;;;;;8.77;4.97;;;;;;;8.38;100.00;102428.53;10372911;28;20038;-79
2023/04/16 06:44:23;;;;;;;3.30;2.85;;;;;;;8.41;100.00;102441.75;10374032;28;20038;-78
2023/04/16 06:49:23;;;;;;;5.35;2.42;;;;;;;8.36;100.00;102436.78;10374317;28;20466;-77
2023/04/16 06:54:24;;;;;;;6.38;3.13;;;;;;;8.32;100.00;102442.59;10373587;28;20433;-79
2023/04/16 06:59:24;;;;;;;9.27;4.13;;;;;;;8.28;100.00;102439.31;10373067;28;20474;-79
2023/04/16 07:04:25;;;;;;;3.75;3.20;;;;;;;8.32;100.00;102448.81;10373618;28;20040;-77
2023/04/16 07:09:26;;;;;;;14.60;3.67;;;;;;;8.37;100.00;102448.41;10373831;28;20077;-78
2023/04/16 07:14:26;;;;;;;4.35;3.85;;;;;;;8.39;100.00;102457.22;10373434;28;20030;-78
2023/04/16 07:19:31;;;;;;;6.95;4.75;;;;;;;8.34;100.00;102457.66;10373372;28;20121;-78
2023/04/16 07:24:31;;;;;;;20.95;5.22;;;;;;;8.37;100.00;102457.34;10372172;28;20041;-78
2023/04/16 07:29:32;;;;;;;5.88;3.95;;;;;;;8.49;100.00;102449.13;10372081;28;20502;-78
2023/04/16 07:34:32;;;;;;;3.60;3.30;;;;;;;8.48;100.00;102456.34;10371245;28;20038;-77
2023/04/16 07:39:33;;;;;;;5.53;3.92;;;;;;;8.51;100.00;102447.97;10371200;28;20040;-78
2023/04/16 07:44:33;;;;;;;5.65;4.07;;;;;;;8.55;100.00;102459.31;10373601;28;20049;-79
2023/04/16 07:49:34;;;;;;;6.78;5.05;;;;;;;8.62;100.00;102468.56;10372265;28;20050;-78
2023/04/16 07:54:34;;;;;;;4.68;3.75;;;;;;;8.63;100.00;102472.13;10372758;28;20030;-79
2023/04/16 07:59:35;;;;;;;6.63;4.30;;;;;;;8.71;100.00;102483.91;10373498;28;20129;-79
2023/04/16 08:04:35;;;;;;;9.85;4.28;;;;;;;8.73;100.00;102476.47;10375323;28;20369;-80
2023/04/16 08:09:36;;;;;;;3.80;3.40;;;;;;;8.78;100.00;102484.16;10362907;28;20117;-77
2023/04/16 08:14:36;;;;;;;5.97;3.97;;;;;;;8.85;100.00;102493.38;10378880;28;20100;-77
2023/04/16 08:19:37;;;;;;;8.48;3.42;;;;;;;8.94;100.00;102497.91;10377772;28;20116;-78
2023/04/16 08:24:37;;;;;;;8.50;4.65;;;;;;;8.88;100.00;102503.03;10378763;28;20140;-78
2023/04/16 08:29:38;;;;;;;8.88;4.78;;;;;;;8.90;100.00;102501.03;10361373;28;20053;-76
2023/04/16 08:34:38;;;;;;;21.55;4.97;;;;;;;8.89;100.00;102500.19;10378924;28;20480;-77
2023/04/16 08:39:39;;;;;;;11.38;3.55;;;;;;;8.90;100.00;102512.69;10393484;28;20026;-81
2023/04/16 08:44:42;;;;;;;13.10;5.65;;;;;;;8.91;100.00;102505.44;10394076;28;20057;-77
2023/04/16 08:49:46;;;;;;;13.20;5.15;;;;;;;9.04;100.00;102508.66;10379686;28;20034;-77
2023/04/16 08:54:47;;;;;;;10.05;4.13;;;;;;;9.02;100.00;102519.59;10378624;28;20366;-78
2023/04/16 08:59:47;;;;;;;3.42;2.67;;;;;;;9.04;100.00;102517.63;10377833;28;20036;-78
2023/04/16 09:04:48;;;;;;;6.55;3.38;;;;;;;9.11;100.00;102536.78;10375904;28;20489;-78
2023/04/16 09:09:49;;;;;;;10.43;4.50;;;;;;;9.11;100.00;102531.38;10392950;28;20576;-79
2023/04/16 09:14:50;;;;;;;5.63;3.42;;;;;;;9.27;100.00;102528.91;10359777;28;20124;-79
2023/04/16 09:19:50;;;;;;;13.93;4.13;;;;;;;9.35;100.00;102532.69;10377774;28;20026;-79
2023/04/16 09:24:50;;;;;;;6.97;4.15;;;;;;;9.30;100.00;102531.31;10376366;28;20342;-79
2023/04/16 09:29:51;;;;;;;5.35;3.85;;;;;;;9.28;100.00;102538.75;10377179;28;20046;-81
2023/04/16 09:35:01;;;;;;;5.30;3.80;;;;;;;9.31;100.00;102537.56;10376559;28;20025;-78
2023/04/16 09:40:02;;;;;;;10.85;3.30;;;;;;;9.26;100.00;102543.44;10374519;28;20022;-79
2023/04/16 09:45:03;;;;;;;5.57;3.72;;;;;;;9.35;100.00;102543.53;10391520;28;20442;-80
2023/04/16 09:50:04;;;;;;;8.05;4.35;;;;;;;9.39;100.00;102556.59;10376697;28;20033;-80
2023/04/16 09:55:05;;;;;;;5.82;3.70;;;;;;;9.39;100.00;102562.00;10390983;28;20501;-81
2023/04/16 10:00:08;;;;;;;8.55;4.05;;;;;;;9.42;100.00;102564.44;10376057;28;20494;-81
2023/04/16 10:05:08;;;;;;;8.23;3.55;;;;;;;9.46;100.00;102564.97;10374270;28;20028;-78
2023/04/16 10:10:09;;;;;;;4.22;3.25;;;;;;;9.53;100.00;102564.22;10358167;28;20033;-80
2023/04/16 10:15:10;;;;;;;7.35;4.55;;;;;;;9.45;100.00;102569.53;10375214;28;20026;-81
2023/04/16 10:20:10;;;;;;;6.20;4.38;;;;;;;9.61;100.00;102576.16;10374443;28;20332;-81
2023/04/16 10:25:11;;;;;;;11.82;4.55;;;;;;;9.71;100.00;102571.53;10374558;28;20042;-81
2023/04/16 10:30:12;;;;;;;5.25;4.15;;;;;;;9.73;100.00;102570.41;10356747;28;20120;-80
2023/04/16 10:35:18;;;;;;;8.98;3.85;;;;;;;9.78;100.00;102575.34;10390899;28;20095;-81
2023/04/16 10:40:25;;;;;;;5.95;4.80;;;;;;;9.85;100.00;102575.59;10357451;28;20362;-81
2023/04/16 10:45:31;;;;;;;8.60;4.07;;;;;;;10.00;100.00;102588.44;10374019;28;20493;-81
2023/04/16 10:50:35;;;;;;;10.43;3.70;;;;;;;10.15;100.00;102577.09;10375075;28;20065;-78
2023/04/16 10:55:38;;;;;;;7.40;4.10;;;;;;;10.08;100.00;102582.25;10390495;28;20029;-76
2023/04/16 11:00:51;;;;;;;9.38;4.00;;;;;;;10.18;100.00;102579.50;10373912;28;20033;-78
2023/04/16 11:05:51;;;;;;;10.85;4.32;;;;;;;10.30;100.00;102581.00;10357382;28;20030;-76
2023/04/16 11:10:51;;;;;;;9.18;4.07;;;;;;;10.40;100.00;102570.06;10373554;28;20068;-77
2023/04/16 11:15:56;;;;;;;6.72;3.60;;;;;;;10.64;100.00;102577.56;10372135;28;20074;-77
2023/04/16 11:20:56;;;;;;;8.68;4.10;;;;;;;10.79;100.00;102567.03;10373717;28;20060;-79
2023/04/16 11:25:58;;;;;;;6.43;3.42;;;;;;;11.06;100.00;102577.72;10388422;28;20435;-76
2023/04/16 11:30:59;;;;;;;13.65;4.32;;;;;;;10.99;100.00;102567.69;10372149;28;20045;-77
2023/04/16 11:35:59;;;;;;;5.72;3.95;;;;;;;10.97;100.00;102578.66;10371892;28;20025;-76
2023/04/16 11:41:00;;;;;;;7.57;3.42;;;;;;;10.98;100.00;102576.81;10377503;28;20030;-75
2023/04/16 11:46:05;;;;;;;3.03;2.83;;;;;;;11.04;100.00;102581.59;10380155;28;20034;-76
2023/04/16 11:51:05;;;;;;;5.80;3.40;;;;;;;11.09;100.00;102571.13;10380297;28;20030;-75
2023/04/16 11:56:06;;;;;;;10.00;4.22;;;;;;;11.12;100.00;102590.63;10396240;28;20105;-75
2023/04/16 12:01:07;;;;;;;13.18;4.85;;;;;;;11.09;100.00;102582.81;10380200;28;20109;-76
2023/04/16 12:06:08;;;;;;;5.55;4.35;;;;;;;11.26;100.00;102593.75;10395489;28;20034;-76
2023/04/16 12:11:08;;;;;;;7.03;4.55;;;;;;;11.12;100.00;102587.06;10379948;28;20052;-75
2023/04/16 12:16:15;;;;;;;8.73;3.80;;;;;;;11.03;100.00;102583.44;10379615;28;20044;-78
2023/04/16 12:21:16;;;;;;;10.18;4.28;;;;;;;11.07;100.00;102594.81;10395362;28;20030;-76
2023/04/16 12:26:16;;;;;;;9.98;4.38;;;;;;;11.05;100.00;102595.00;10379521;28;20148;-77
2023/04/16 12:31:19;;;;;;;3.90;3.53;;;;;;;11.13;100.00;102599.59;10379953;28;20050;-77
2023/04/16 12:36:19;;;;;;;19.33;6.20;;;;;;;10.94;100.00;102604.25;10379949;28;20438;-76
2023/04/16 12:41:20;;;;;;;9.88;4.97;;;;;;;10.90;100.00;102602.00;10378293;28;20036;-77
2023/04/16 12:46:21;;;;;;;12.68;5.90;;;;;;;10.85;100.00;102594.34;10378830;28;20119;-77
2023/04/16 12:51:21;;;;;;;12.98;6.07;;;;;;;10.90;100.00;102602.00;10377522;28;20104;-76
2023/04/16 12:56:22;;;;;;;14.25;7.13;;;;;;;11.08;100.00;102596.53;10377871;28;20061;-76
2023/04/16 13:01:22;;;;;;;9.38;6.05;;;;;;;11.05;100.00;102596.88;10377785;28;20068;-75
2023/04/16 13:06:23;;;;;;;23.13;7.03;;;;;;;11.12;100.00;102604.19;10360676;28;20077;-74
2023/04/16 13:11:23;;;;;;;14.75;6.85;;;;;;;11.13;100.00;102605.03;10378070;28;20041;-74
2023/04/16 13:16:24;;;;;;;14.90;6.13;;;;;;;11.21;100.00;102602.38;10377401;28;20045;-74
2023/04/16 13:21:24;;;;;;;14.27;6.82;;;;;;;11.23;100.00;102600.38;10392386;28;20030;-74
2023/04/16 13:26:25;;;;;;;23.08;6.32;;;;;;;11.18;100.00;102606.25;10378287;28;20362;-74
2023/04/16 13:31:26;;;;;;;13.20;6.40;;;;;;;11.11;100.00;102604.34;10393338;28;20133;-74
2023/04/16 13:36:26;;;;;;;8.05;5.60;;;;;;;11.13;100.00;102599.59;10392934;28;20217;-77
2023/04/16 13:41:26;;;;;;;7.38;5.80;;;;;;;11.12;100.00;102608.75;10376357;28;20065;-74
2023/04/16 13:46:27;;;;;;;8.73;5.05;;;;;;;11.13;100.00;102602.31;10376266;28;20069;-74
2023/04/16 13:51:28;;;;;;;6.57;5.32;;;;;;;11.31;100.00;102594.97;10374121;28;20077;-75
2023/04/16 13:56:28;;;;;;;16.15;6.97;;;;;;;11.41;100.00;102598.41;10376299;28;20038;-75
2023/04/16 14:01:29;;;;;;;9.77;6.00;;;;;;;11.48;100.00;102600.50;10357469;28;20038;-75
2023/04/16 14:06:30;;;;;;;11.93;6.93;;;;;;;11.36;100.00;102606.22;10375507;28;20120;-75
2023/04/16 14:11:31;;;;;;;10.95;7.20;;;;;;;11.30;100.00;102604.13;10373196;28;20124;-75
2023/04/16 14:16:32;;;;;;;9.43;5.57;;;;;;;11.16;100.00;102610.13;10375136;28;20049;-76
2023/04/16 14:21:32;;;;;;;19.17;7.28;;;;;;;11.00;100.00;102601.91;10372989;28;20040;-76
2023/04/16 14:26:33;;;;;;;17.50;7.05;;;;;;;11.02;100.00;102599.88;10375267;28;20116;-74
2023/04/16 14:31:33;;;;;;;12.40;7.25;;;;;;;11.08;100.00;102593.84;10372495;28;20132;-75
2023/04/16 14:36:35;;;;;;;13.18;8.65;;;;;;;11.14;100.00;102599.47;10373223;28;20414;-73
2023/04/16 14:41:36;;;;;;;14.68;8.07;;;;;;;11.10;100.00;102598.09;10374424;28;20037;-73
2023/04/16 14:46:37;;;;;;;10.45;6.93;;;;;;;11.02;100.00;102603.44;10389462;28;20033;-74
2023/04/16 14:51:38;;;;;;;10.38;7.28;;;;;;;10.92;100.00;102603.53;10374141;28;20038;-74
2023/04/16 14:56:38;;;;;;;11.05;6.28;;;;;;;10.93;100.00;102601.69;10388946;28;20374;-75
2023/04/16 15:01:39;;;;;;;11.30;6.93;;;;;;;11.02;100.00;102591.75;10373365;28;20038;-75
2023/04/16 15:06:39;;;;;;;15.95;6.78;;;;;;;11.13;100.00;102581.47;10373771;28;20437;-75
2023/04/16 15:11:40;;;;;;;10.75;7.85;;;;;;;11.27;100.00;102590.06;10388904;28;20072;-75
2023/04/16 15:16:40;;;;;;;8.10;6.75;;;;;;;11.25;100.00;102592.91;10379049;28;20478;-75
2023/04/16 15:21:41;;;;;;;10.27;7.38;;;;;;;11.18;100.00;102589.16;10382216;28;20058;-75
2023/04/16 15:26:41;;;;;;;8.50;6.03;;;;;;;11.11;100.00;102596.22;10381223;28;20500;-75
2023/04/16 15:31:42;;;;;;;8.13;6.80;;;;;;;11.04;100.00;102595.13;10396306;28;20117;-75
2023/04/16 15:36:42;;;;;;;15.07;6.43;;;;;;;10.92;100.00;102587.28;10396933;28;20087;-75
2023/04/16 15:41:43;;;;;;;9.85;6.85;;;;;;;10.86;100.00;102593.34;10380843;28;20579;-75
2023/04/16 15:46:43;;;;;;;8.75;6.25;;;;;;;10.75;100.00;102576.47;10379474;28;20117;-75
2023/04/16 15:51:44;;;;;;;13.13;7.55;;;;;;;10.69;100.00;102586.94;10380746;28;20069;-75
2023/04/16 15:56:45;;;;;;;9.00;5.93;;;;;;;10.71;100.00;102589.47;10380288;28;20466;-75
2023/04/16 16:01:45;;;;;;;10.68;7.63;;;;;;;10.68;100.00;102587.09;10380251;28;20042;-75
2023/04/16 16:06:46;;;;;;;9.13;7.20;;;;;;;10.57;100.00;102590.06;10379442;28;20569;-76
2023/04/16 16:11:46;;;;;;;11.88;7.57;;;;;;;10.46;100.00;102594.72;10380447;28;20485;-75
2023/04/16 16:16:47;;;;;;;8.60;7.75;;;;;;;10.40;100.00;102598.03;10377940;28;20037;-75
2023/04/16 16:21:48;;;;;;;20.08;8.13;;;;;;;10.35;100.00;102594.09;10395615;28;20034;-75
2023/04/16 16:26:48;;;;;;;11.10;7.75;;;;;;;10.43;100.00;102600.44;10378503;28;20390;-75
2023/04/16 16:31:49;;;;;;;11.25;6.85;;;;;;;10.52;100.00;102600.50;10394279;28;20484;-76
2023/04/16 16:36:49;;;;;;;20.05;9.45;;;;;;;10.46;100.00;102602.84;10379001;28;20042;-75
2023/04/16 16:41:51;;;;;;;11.88;8.57;;;;;;;10.45;100.00;102606.53;10361329;28;20172;-75
2023/04/16 16:46:51;;;;;;;15.93;8.38;;;;;;;10.37;100.00;102611.00;10377415;28;20052;-75
2023/04/16 16:51:52;;;;;;;14.13;8.00;;;;;;;10.30;100.00;102607.22;10376864;28;20542;-75
2023/04/16 16:56:52;;;;;;;22.08;8.38;;;;;;;10.21;100.00;102607.13;10377437;28;20042;-75
2023/04/16 17:01:53;;;;;;;13.68;8.90;;;;;;;10.31;100.00;102608.94;10378385;28;20469;-76
2023/04/16 17:06:53;;;;;;;12.68;8.48;;;;;;;10.32;100.00;102607.94;10377130;28;20077;-75
2023/04/16 17:11:54;;;;;;;17.95;9.80;;;;;;;10.27;100.00;102608.38;10376786;28;20054;-75
2023/04/16 17:16:54;;;;;;;12.10;9.05;;;;;;;10.12;100.00;102613.44;10375483;28;20057;-74
2023/04/16 17:21:54;;;;;;;13.60;9.60;;;;;;;10.10;100.00;102614.59;10377741;28;20064;-75
2023/04/16 17:26:55;;;;;;;19.40;9.48;;;;;;;10.07;100.00;102606.78;10391526;28;20569;-75
2023/04/16 17:31:56;;;;;;;14.88;11.38;;;;;;;9.92;100.00;102609.13;10376106;28;20124;-75
2023/04/16 17:36:56;;;;;;;12.65;10.10;;;;;;;9.83;100.00;102616.34;10357539;28;20030;-75
2023/04/16 17:41:57;;;;;;;20.30;10.07;;;;;;;9.86;100.00;102617.88;10374846;28;20037;-76
2023/04/16 17:46:58;;;;;;;17.42;11.95;;;;;;;9.83;100.00;102613.63;10375650;28;20038;-75
2023/04/16 17:51:58;;;;;;;19.23;12.25;;;;;;;9.72;100.00;102624.63;10377141;28;20034;-76
2023/04/16 17:56:58;;;;;;;20.75;10.38;;;;;;;9.74;100.00;102619.94;10375618;28;20461;-75
2023/04/16 18:01:59;;;;;;;20.77;12.73;;;;;;;9.77;100.00;102630.47;10374349;28;20046;-75
2023/04/16 18:06:59;;;;;;;15.85;11.38;;;;;;;9.71;100.00;102636.47;10375560;28;20069;-76
2023/04/16 18:12:00;;;;;;;20.70;12.50;;;;;;;9.64;100.00;102638.06;10374077;28;20096;-75
2023/04/16 18:17:00;;;;;;;16.88;12.18;;;;;;;9.52;100.00;102642.81;10374510;28;20080;-76
2023/04/16 18:22:01;;;;;;;22.17;13.00;;;;;;;9.50;100.00;102651.03;10357925;28;20363;-75
2023/04/16 18:27:02;;;;;;;26.98;13.35;;;;;;;9.39;100.00;102653.94;10390234;28;20054;-76
2023/04/16 18:32:03;;;;;;;21.25;12.77;;;;;;;9.25;100.00;102651.69;10372902;28;20041;-75
2023/04/16 18:37:03;;;;;;;25.67;13.40;;;;;;;9.25;100.00;102657.97;10357060;28;20042;-76
2023/04/16 18:42:04;;;;;;;21.17;13.27;;;;;;;9.23;100.00;102659.13;10373676;28;20121;-75
2023/04/16 18:47:04;;;;;;;22.05;12.75;;;;;;;9.26;100.00;102670.47;10374707;28;20033;-75
2023/04/16 18:52:05;;;;;;;26.77;14.10;;;;;;;9.27;100.00;102674.88;10373321;28;20061;-76
2023/04/16 18:57:05;;;;;;;19.05;12.35;;;;;;;9.23;100.00;102680.75;10373380;28;20083;-75
2023/04/16 19:02:06;;;;;;;24.48;14.07;;;;;;;9.16;100.00;102680.47;10374502;28;20112;-75
2023/04/16 19:07:06;;;;;;;24.27;13.63;;;;;;;9.20;100.00;102683.72;10373635;28;20034;-76
2023/04/16 19:12:07;;;;;;;19.05;14.30;;;;;;;9.20;100.00;102678.31;10373110;28;20463;-74
2023/04/16 19:17:07;;;;;;;28.42;14.57;;;;;;;9.18;100.00;102680.31;10372335;28;20078;-75
2023/04/16 19:22:07;;;;;;;24.88;14.43;;;;;;;9.15;100.00;102684.16;10372995;28;20414;-76
2023/04/16 19:27:08;;;;;;;24.23;13.15;;;;;;;9.13;100.00;102680.75;10371496;28;20026;-75
2023/04/16 19:32:08;;;;;;;29.08;15.40;;;;;;;9.16;100.00;102687.72;10371842;28;20443;-74
2023/04/16 19:37:09;;;;;;;28.05;15.35;;;;;;;9.12;100.00;102683.59;10373275;28;20044;-74
2023/04/16 19:42:10;;;;;;;26.95;15.50;;;;;;;9.11;100.00;102687.28;10374010;28;20439;-75
2023/04/16 19:47:10;;;;;;;33.28;14.23;;;;;;;9.05;100.00;102686.84;10371210;28;20113;-75
2023/04/16 19:52:11;;;;;;;18.55;14.82;;;;;;;9.05;100.00;102686.00;10372266;28;20045;-75
2023/04/16 19:57:11;;;;;;;27.33;16.67;;;;;;;9.03;100.00;102702.38;10370968;28;20038;-75
2023/04/16 20:02:11;;;;;;;31.33;14.35;;;;;;;9.00;100.00;102693.72;10377475;28;20037;-74
2023/04/16 20:07:12;;;;;;;21.02;14.50;;;;;;;8.96;100.00;102690.41;10380678;28;20084;-75
2023/04/16 20:12:13;;;;;;;28.23;15.02;;;;;;;8.97;100.00;102694.84;10380568;28;20057;-75
2023/04/16 20:17:18;;;;;;;25.95;13.75;;;;;;;8.95;100.00;102688.72;10362232;28;20117;-75
2023/04/16 20:22:18;;;;;;;26.90;15.88;;;;;;;8.96;100.00;102695.81;10380169;28;20056;-75
2023/04/16 20:27:19;;;;;;;23.50;15.52;;;;;;;9.01;100.00;102695.41;10378157;28;20429;-76
2023/04/16 20:32:20;;;;;;;21.45;15.98;;;;;;;9.07;100.00;102698.41;10361078;28;20064;-75
2023/04/16 20:37:20;;;;;;;26.70;15.15;;;;;;;9.03;100.00;102691.56;10378297;28;20042;-77
2023/04/16 20:42:21;;;;;;;30.23;17.00;;;;;;;9.03;100.00;102693.41;10378945;28;20168;-76
2023/04/16 20:47:22;;;;;;;24.92;16.98;;;;;;;8.99;100.00;102689.28;10362198;28;20026;-74
2023/04/16 20:52:22;;;;;;;33.80;18.15;;;;;;;8.95;100.00;102685.19;10379249;28;20038;-76
2023/04/16 20:57:22;;;;;;;28.85;19.33;;;;;;;8.85;100.00;102683.31;10378808;28;20469;-77
2023/04/16 21:02:23;;;;;;;25.13;17.85;;;;;;;8.70;100.00;102689.28;10361579;28;20046;-77
2023/04/16 21:07:23;;;;;;;43.22;21.00;;;;;;;8.69;100.00;102690.28;10378754;28;20120;-77
2023/04/16 21:12:24;;;;;;;36.78;21.40;;;;;;;8.65;100.00;102678.03;10378465;28;20036;-76
2023/04/16 21:17:24;;;;;;;33.05;19.67;;;;;;;8.70;100.00;102678.50;10377907;28;20422;-74
2023/04/16 21:22:25;;;;;;;38.28;20.27;;;;;;;8.70;100.00;102675.78;10379142;28;20130;-75
2023/04/16 21:27:25;;;;;;;33.33;19.95;;;;;;;8.76;100.00;102677.94;10379289;28;20462;-76
2023/04/16 21:32:26;;;;;;;29.85;18.50;;;;;;;8.71;100.00;102680.19;10377965;28;20046;-76
2023/04/16 21:37:26;;;;;;;36.15;22.45;;;;;;;8.70;100.00;102673.09;10377057;28;20038;-76
2023/04/16 21:42:27;;;;;;;35.78;21.48;;;;;;;8.72;100.00;102668.41;10378485;28;20037;-76
2023/04/16 21:47:27;;;;;;;33.13;20.90;;;;;;;8.72;100.00;102671.09;10360613;28;20038;-77
2023/04/16 21:52:28;;;;;;;32.63;20.92;;;;;;;8.76;100.00;102662.56;10378593;28;20042;-75
2023/04/16 21:57:28;;;;;;;30.98;20.63;;;;;;;8.84;100.00;102670.81;10377384;28;20033;-76
2023/04/16 22:02:29;;;;;;;31.98;20.35;;;;;;;8.87;100.00;102666.09;10375590;28;20527;-76
2023/04/16 22:07:30;;;;;;;31.65;21.40;;;;;;;8.85;100.00;102655.47;10377646;28;20033;-75
2023/04/16 22:12:30;;;;;;;30.20;23.73;;;;;;;8.83;100.00;102665.53;10357917;28;20421;-74
2023/04/16 22:17:32;;;;;;;32.85;24.88;;;;;;;8.74;100.00;102663.69;10375243;28;20060;-75
2023/04/16 22:22:33;;;;;;;36.47;27.50;;;;;;;8.71;100.00;102658.56;10375142;28;20389;-75
2023/04/16 22:27:34;;;;;;;28.90;23.40;;;;;;;8.68;100.00;102669.66;10373695;28;20033;-75
2023/04/16 22:32:34;;;;;;;37.30;26.83;;;;;;;8.67;100.00;102662.56;10373207;28;20559;-76
2023/04/16 22:37:35;;;;;;;43.00;28.15;;;;;;;8.73;100.00;102662.00;10373789;28;20069;-76
2023/04/16 22:42:35;;;;;;;43.85;29.85;;;;;;;8.77;100.00;102658.00;10375039;28;20066;-75
2023/04/16 22:47:36;;;;;;;48.50;30.15;;;;;;;8.82;100.00;102658.44;10372538;28;20563;-75